sensor_id;sensor_type;location;lat;lon;timestamp;temperature;humidity
20246;DHT22;10281;54.406;18.556;2024-02-21T00:02:06;6.80;99.90
20246;DHT22;10281;54.406;18.556;2024-02-21T00:04:32;6.80;99.90
20246;DHT22;10281;54.406;18.556;2024-02-21T00:06:59;6.90;99.90
20246;DHT22;10281;54.406;18.556;2024-02-21T00:09:26;6.90;99.90
20246;DHT22;10281;54.406;18.556;2024-02-21T00:11:52;6.90;99.90
20246;DHT22;10281;54.406;18.556;2024-02-21T00:14:19;6.90;99.90
20246;DHT22;10281;54.406;18.556;2024-02-21T00:16:45;6.90;99.90
20246;DHT22;10281;54.406;18.556;2024-02-21T00:19:12;6.90;99.90
20246;DHT22;10281;54.406;18.556;2024-02-21T00:21:40;6.90;99.90
20246;DHT22;10281;54.406;18.556;2024-02-21T00:24:07;6.80;99.90
20246;DHT22;10281;54.406;18.556;2024-02-21T00:26:34;6.80;99.90
20246;DHT22;10281;54.406;18.556;2024-02-21T00:29:00;6.80;99.90
20246;DHT22;10281;54.406;18.556;2024-02-21T00:31:27;6.80;99.90
20246;DHT22;10281;54.406;18.556;2024-02-21T00:33:53;6.80;99.90
20246;DHT22;10281;54.406;18.556;2024-02-21T00:36:20;6.70;99.90
20246;DHT22;10281;54.406;18.556;2024-02-21T00:38:46;6.70;99.90
20246;DHT22;10281;54.406;18.556;2024-02-21T00:41:13;6.70;99.90
20246;DHT22;10281;54.406;18.556;2024-02-21T00:43:40;6.70;99.90
20246;DHT22;10281;54.406;18.556;2024-02-21T00:46:06;6.70;99.90
20246;DHT22;10281;54.406;18.556;2024-02-21T00:48:33;6.70;99.90
20246;DHT22;10281;54.406;18.556;2024-02-21T00:51:00;6.70;99.90
20246;DHT22;10281;54.406;18.556;2024-02-21T00:53:27;6.70;99.90
20246;DHT22;10281;54.406;18.556;2024-02-21T00:55:53;6.70;99.90
20246;DHT22;10281;54.406;18.556;2024-02-21T00:58:20;6.70;99.90
20246;DHT22;10281;54.406;18.556;2024-02-21T01:00:47;6.70;99.90
20246;DHT22;10281;54.406;18.556;2024-02-21T01:03:13;6.70;99.90
20246;DHT22;10281;54.406;18.556;2024-02-21T01:05:40;6.70;99.90
20246;DHT22;10281;54.406;18.556;2024-02-21T01:08:07;6.70;99.90
20246;DHT22;10281;54.406;18.556;2024-02-21T01:10:34;6.70;99.90
20246;DHT22;10281;54.406;18.556;2024-02-21T01:13:00;6.70;99.90
20246;DHT22;10281;54.406;18.556;2024-02-21T01:15:27;6.80;99.90
20246;DHT22;10281;54.406;18.556;2024-02-21T01:17:53;6.80;99.90
20246;DHT22;10281;54.406;18.556;2024-02-21T01:20:21;6.80;99.90
20246;DHT22;10281;54.406;18.556;2024-02-21T01:22:47;6.80;99.90
20246;DHT22;10281;54.406;18.556;2024-02-21T01:25:14;6.80;99.90
20246;DHT22;10281;54.406;18.556;2024-02-21T01:27:41;6.80;99.90
20246;DHT22;10281;54.406;18.556;2024-02-21T01:30:08;6.80;99.90
20246;DHT22;10281;54.406;18.556;2024-02-21T01:32:36;6.90;99.90
20246;DHT22;10281;54.406;18.556;2024-02-21T01:35:03;6.90;99.90
20246;DHT22;10281;54.406;18.556;2024-02-21T01:37:30;6.90;99.90
20246;DHT22;10281;54.406;18.556;2024-02-21T01:39:57;6.90;99.90
20246;DHT22;10281;54.406;18.556;2024-02-21T01:42:23;7.00;99.90
20246;DHT22;10281;54.406;18.556;2024-02-21T01:44:50;7.00;99.90
20246;DHT22;10281;54.406;18.556;2024-02-21T01:47:17;7.00;99.90
20246;DHT22;10281;54.406;18.556;2024-02-21T01:49:44;7.00;99.90
20246;DHT22;10281;54.406;18.556;2024-02-21T01:52:12;7.00;99.90
20246;DHT22;10281;54.406;18.556;2024-02-21T01:54:40;7.00;99.90
20246;DHT22;10281;54.406;18.556;2024-02-21T01:57:07;7.00;99.90
20246;DHT22;10281;54.406;18.556;2024-02-21T01:59:34;7.00;99.90
20246;DHT22;10281;54.406;18.556;2024-02-21T02:02:02;7.00;99.90
20246;DHT22;10281;54.406;18.556;2024-02-21T02:04:29;7.00;99.90
20246;DHT22;10281;54.406;18.556;2024-02-21T02:06:55;7.00;99.90
20246;DHT22;10281;54.406;18.556;2024-02-21T02:09:22;7.00;99.90
20246;DHT22;10281;54.406;18.556;2024-02-21T02:11:49;7.00;99.90
20246;DHT22;10281;54.406;18.556;2024-02-21T02:14:16;7.00;99.90
20246;DHT22;10281;54.406;18.556;2024-02-21T02:16:46;7.10;99.90
20246;DHT22;10281;54.406;18.556;2024-02-21T02:19:14;7.10;99.90
20246;DHT22;10281;54.406;18.556;2024-02-21T02:21:46;7.10;99.90
20246;DHT22;10281;54.406;18.556;2024-02-21T02:24:14;7.10;99.90
20246;DHT22;10281;54.406;18.556;2024-02-21T02:26:41;7.10;99.90
20246;DHT22;10281;54.406;18.556;2024-02-21T02:29:07;7.10;99.90
20246;DHT22;10281;54.406;18.556;2024-02-21T02:31:34;7.10;99.90
20246;DHT22;10281;54.406;18.556;2024-02-21T02:34:01;7.10;99.90
20246;DHT22;10281;54.406;18.556;2024-02-21T02:36:27;7.10;99.90
20246;DHT22;10281;54.406;18.556;2024-02-21T02:38:54;7.10;99.90
20246;DHT22;10281;54.406;18.556;2024-02-21T02:41:21;7.10;99.90
20246;DHT22;10281;54.406;18.556;2024-02-21T02:43:47;7.20;99.90
20246;DHT22;10281;54.406;18.556;2024-02-21T02:46:14;7.10;99.90
20246;DHT22;10281;54.406;18.556;2024-02-21T02:48:41;7.20;99.90
20246;DHT22;10281;54.406;18.556;2024-02-21T02:51:07;7.20;99.90
20246;DHT22;10281;54.406;18.556;2024-02-21T02:53:34;7.20;99.90
20246;DHT22;10281;54.406;18.556;2024-02-21T02:56:00;7.20;99.90
20246;DHT22;10281;54.406;18.556;2024-02-21T02:58:27;7.20;99.90
20246;DHT22;10281;54.406;18.556;2024-02-21T03:00:54;7.10;99.90
20246;DHT22;10281;54.406;18.556;2024-02-21T03:03:21;7.10;99.90
20246;DHT22;10281;54.406;18.556;2024-02-21T03:05:47;7.10;99.90
20246;DHT22;10281;54.406;18.556;2024-02-21T03:08:14;7.10;99.90
20246;DHT22;10281;54.406;18.556;2024-02-21T03:10:41;7.20;99.90
20246;DHT22;10281;54.406;18.556;2024-02-21T03:13:07;7.20;99.90
20246;DHT22;10281;54.406;18.556;2024-02-21T03:15:34;7.20;99.90
20246;DHT22;10281;54.406;18.556;2024-02-21T03:18:00;7.20;99.90
20246;DHT22;10281;54.406;18.556;2024-02-21T03:20:27;7.20;99.90
20246;DHT22;10281;54.406;18.556;2024-02-21T03:22:54;7.20;99.90
20246;DHT22;10281;54.406;18.556;2024-02-21T03:25:20;7.20;99.90
20246;DHT22;10281;54.406;18.556;2024-02-21T03:27:47;7.20;99.90
20246;DHT22;10281;54.406;18.556;2024-02-21T03:30:14;7.20;99.90
20246;DHT22;10281;54.406;18.556;2024-02-21T03:32:40;7.20;99.90
20246;DHT22;10281;54.406;18.556;2024-02-21T03:35:07;7.30;99.90
20246;DHT22;10281;54.406;18.556;2024-02-21T03:37:34;7.20;99.90
20246;DHT22;10281;54.406;18.556;2024-02-21T03:40:01;7.30;99.90
20246;DHT22;10281;54.406;18.556;2024-02-21T03:42:28;7.30;99.90
20246;DHT22;10281;54.406;18.556;2024-02-21T03:44:57;7.30;99.90
20246;DHT22;10281;54.406;18.556;2024-02-21T03:47:23;7.30;99.90
20246;DHT22;10281;54.406;18.556;2024-02-21T03:49:50;7.30;99.90
20246;DHT22;10281;54.406;18.556;2024-02-21T03:52:17;7.30;99.90
20246;DHT22;10281;54.406;18.556;2024-02-21T03:54:44;7.30;99.90
20246;DHT22;10281;54.406;18.556;2024-02-21T03:57:10;7.30;99.90
20246;DHT22;10281;54.406;18.556;2024-02-21T03:59:37;7.30;99.90
20246;DHT22;10281;54.406;18.556;2024-02-21T04:02:06;7.20;99.90
20246;DHT22;10281;54.406;18.556;2024-02-21T04:04:35;7.20;99.90
20246;DHT22;10281;54.406;18.556;2024-02-21T04:07:05;7.30;99.90
20246;DHT22;10281;54.406;18.556;2024-02-21T04:09:33;7.20;99.90
20246;DHT22;10281;54.406;18.556;2024-02-21T04:12:00;7.30;99.90
20246;DHT22;10281;54.406;18.556;2024-02-21T04:14:27;7.20;99.90
20246;DHT22;10281;54.406;18.556;2024-02-21T04:16:54;7.30;99.90
20246;DHT22;10281;54.406;18.556;2024-02-21T04:19:20;7.20;99.90
20246;DHT22;10281;54.406;18.556;2024-02-21T04:21:47;7.20;99.90
20246;DHT22;10281;54.406;18.556;2024-02-21T04:24:14;7.20;99.90
20246;DHT22;10281;54.406;18.556;2024-02-21T04:26:40;7.30;99.90
20246;DHT22;10281;54.406;18.556;2024-02-21T04:29:07;7.20;99.90
20246;DHT22;10281;54.406;18.556;2024-02-21T04:31:34;7.30;99.90
20246;DHT22;10281;54.406;18.556;2024-02-21T04:34:00;7.20;99.90
20246;DHT22;10281;54.406;18.556;2024-02-21T04:36:28;7.30;99.90
20246;DHT22;10281;54.406;18.556;2024-02-21T04:38:55;7.30;99.90
20246;DHT22;10281;54.406;18.556;2024-02-21T04:41:22;7.30;99.90
20246;DHT22;10281;54.406;18.556;2024-02-21T04:43:48;7.30;99.90
20246;DHT22;10281;54.406;18.556;2024-02-21T04:46:15;7.40;99.90
20246;DHT22;10281;54.406;18.556;2024-02-21T04:48:41;7.30;99.90
20246;DHT22;10281;54.406;18.556;2024-02-21T04:51:08;7.30;99.90
20246;DHT22;10281;54.406;18.556;2024-02-21T04:53:35;7.30;99.90
20246;DHT22;10281;54.406;18.556;2024-02-21T04:56:01;7.30;99.90
20246;DHT22;10281;54.406;18.556;2024-02-21T04:58:28;7.30;99.90
20246;DHT22;10281;54.406;18.556;2024-02-21T05:00:55;7.30;99.90
20246;DHT22;10281;54.406;18.556;2024-02-21T05:03:21;7.30;99.90
20246;DHT22;10281;54.406;18.556;2024-02-21T05:05:48;7.30;99.90
20246;DHT22;10281;54.406;18.556;2024-02-21T05:08:15;7.30;99.90
20246;DHT22;10281;54.406;18.556;2024-02-21T05:10:41;7.30;99.90
20246;DHT22;10281;54.406;18.556;2024-02-21T05:13:08;7.30;99.90
20246;DHT22;10281;54.406;18.556;2024-02-21T05:15:35;7.30;99.90
20246;DHT22;10281;54.406;18.556;2024-02-21T05:18:01;7.30;99.90
20246;DHT22;10281;54.406;18.556;2024-02-21T05:20:28;7.30;99.90
20246;DHT22;10281;54.406;18.556;2024-02-21T05:22:54;7.30;99.90
20246;DHT22;10281;54.406;18.556;2024-02-21T05:25:21;7.30;99.90
20246;DHT22;10281;54.406;18.556;2024-02-21T05:27:48;7.40;99.90
20246;DHT22;10281;54.406;18.556;2024-02-21T05:30:18;7.30;99.90
20246;DHT22;10281;54.406;18.556;2024-02-21T05:32:44;7.30;99.90
20246;DHT22;10281;54.406;18.556;2024-02-21T05:35:11;7.30;99.90
20246;DHT22;10281;54.406;18.556;2024-02-21T05:37:37;7.30;99.90
20246;DHT22;10281;54.406;18.556;2024-02-21T05:40:05;7.30;99.90
20246;DHT22;10281;54.406;18.556;2024-02-21T05:42:32;7.30;99.90
20246;DHT22;10281;54.406;18.556;2024-02-21T05:44:58;7.30;99.90
20246;DHT22;10281;54.406;18.556;2024-02-21T05:47:25;7.30;99.90
20246;DHT22;10281;54.406;18.556;2024-02-21T05:49:51;7.40;99.90
20246;DHT22;10281;54.406;18.556;2024-02-21T05:52:20;7.40;99.90
20246;DHT22;10281;54.406;18.556;2024-02-21T05:54:47;7.40;99.90
20246;DHT22;10281;54.406;18.556;2024-02-21T05:57:13;7.30;99.90
20246;DHT22;10281;54.406;18.556;2024-02-21T05:59:40;7.40;99.90
20246;DHT22;10281;54.406;18.556;2024-02-21T06:02:07;7.40;99.90
20246;DHT22;10281;54.406;18.556;2024-02-21T06:04:34;7.40;99.90
20246;DHT22;10281;54.406;18.556;2024-02-21T06:07:01;7.30;99.90
20246;DHT22;10281;54.406;18.556;2024-02-21T06:09:28;7.40;99.90
20246;DHT22;10281;54.406;18.556;2024-02-21T06:11:55;7.40;99.90
20246;DHT22;10281;54.406;18.556;2024-02-21T06:14:21;7.40;99.90
20246;DHT22;10281;54.406;18.556;2024-02-21T06:16:48;7.40;99.90
20246;DHT22;10281;54.406;18.556;2024-02-21T06:19:15;7.40;99.90
20246;DHT22;10281;54.406;18.556;2024-02-21T06:21:41;7.40;99.90
20246;DHT22;10281;54.406;18.556;2024-02-21T06:24:08;7.40;99.90
20246;DHT22;10281;54.406;18.556;2024-02-21T06:26:34;7.50;99.90
20246;DHT22;10281;54.406;18.556;2024-02-21T06:29:01;7.50;99.90
20246;DHT22;10281;54.406;18.556;2024-02-21T06:31:28;7.50;99.90
20246;DHT22;10281;54.406;18.556;2024-02-21T06:33:55;7.50;99.90
20246;DHT22;10281;54.406;18.556;2024-02-21T06:36:22;7.50;99.90
20246;DHT22;10281;54.406;18.556;2024-02-21T06:38:48;7.50;99.90
20246;DHT22;10281;54.406;18.556;2024-02-21T06:41:17;7.50;99.90
20246;DHT22;10281;54.406;18.556;2024-02-21T06:43:46;7.60;99.90
20246;DHT22;10281;54.406;18.556;2024-02-21T06:46:23;7.60;99.90
20246;DHT22;10281;54.406;18.556;2024-02-21T06:48:51;7.60;99.90
20246;DHT22;10281;54.406;18.556;2024-02-21T06:51:17;7.60;99.90
20246;DHT22;10281;54.406;18.556;2024-02-21T06:53:44;7.60;99.90
20246;DHT22;10281;54.406;18.556;2024-02-21T06:56:11;7.60;99.90
20246;DHT22;10281;54.406;18.556;2024-02-21T06:58:38;7.60;99.90
20246;DHT22;10281;54.406;18.556;2024-02-21T07:01:04;7.70;99.90
20246;DHT22;10281;54.406;18.556;2024-02-21T07:03:31;7.70;99.90
20246;DHT22;10281;54.406;18.556;2024-02-21T07:05:57;7.70;99.90
20246;DHT22;10281;54.406;18.556;2024-02-21T07:08:25;7.70;99.90
20246;DHT22;10281;54.406;18.556;2024-02-21T07:10:52;7.80;99.90
20246;DHT22;10281;54.406;18.556;2024-02-21T07:13:18;7.80;99.90
20246;DHT22;10281;54.406;18.556;2024-02-21T07:15:46;7.70;99.90
20246;DHT22;10281;54.406;18.556;2024-02-21T07:18:13;7.70;99.90
20246;DHT22;10281;54.406;18.556;2024-02-21T07:20:40;7.80;99.90
20246;DHT22;10281;54.406;18.556;2024-02-21T07:23:08;7.80;99.90
20246;DHT22;10281;54.406;18.556;2024-02-21T07:25:34;7.80;99.90
20246;DHT22;10281;54.406;18.556;2024-02-21T07:28:01;7.80;99.90
20246;DHT22;10281;54.406;18.556;2024-02-21T07:30:28;7.80;99.90
20246;DHT22;10281;54.406;18.556;2024-02-21T07:32:55;7.90;99.90
20246;DHT22;10281;54.406;18.556;2024-02-21T07:35:22;7.90;99.90
20246;DHT22;10281;54.406;18.556;2024-02-21T07:37:48;7.90;99.90
20246;DHT22;10281;54.406;18.556;2024-02-21T07:40:16;7.90;99.90
20246;DHT22;10281;54.406;18.556;2024-02-21T07:42:44;7.90;99.90
20246;DHT22;10281;54.406;18.556;2024-02-21T07:45:11;7.90;99.90
20246;DHT22;10281;54.406;18.556;2024-02-21T07:47:37;7.90;99.90
20246;DHT22;10281;54.406;18.556;2024-02-21T07:50:05;7.80;99.90
20246;DHT22;10281;54.406;18.556;2024-02-21T07:52:32;7.90;99.90
20246;DHT22;10281;54.406;18.556;2024-02-21T07:54:58;7.90;99.90
20246;DHT22;10281;54.406;18.556;2024-02-21T07:57:25;7.90;99.90
20246;DHT22;10281;54.406;18.556;2024-02-21T07:59:51;8.00;99.90
20246;DHT22;10281;54.406;18.556;2024-02-21T08:02:18;8.00;99.90
20246;DHT22;10281;54.406;18.556;2024-02-21T08:04:44;7.90;99.90
20246;DHT22;10281;54.406;18.556;2024-02-21T08:07:11;8.00;99.90
20246;DHT22;10281;54.406;18.556;2024-02-21T08:09:40;8.00;99.90
20246;DHT22;10281;54.406;18.556;2024-02-21T08:12:07;8.00;99.90
20246;DHT22;10281;54.406;18.556;2024-02-21T08:14:33;8.00;99.90
20246;DHT22;10281;54.406;18.556;2024-02-21T08:17:00;8.00;99.90
20246;DHT22;10281;54.406;18.556;2024-02-21T08:19:26;8.10;99.90
20246;DHT22;10281;54.406;18.556;2024-02-21T08:21:53;8.10;99.90
20246;DHT22;10281;54.406;18.556;2024-02-21T08:24:19;8.20;99.90
20246;DHT22;10281;54.406;18.556;2024-02-21T08:26:48;8.20;99.90
20246;DHT22;10281;54.406;18.556;2024-02-21T08:29:15;8.20;99.90
20246;DHT22;10281;54.406;18.556;2024-02-21T08:31:42;8.20;99.90
20246;DHT22;10281;54.406;18.556;2024-02-21T08:34:08;8.20;99.90
20246;DHT22;10281;54.406;18.556;2024-02-21T08:36:35;8.30;99.90
20246;DHT22;10281;54.406;18.556;2024-02-21T08:39:03;8.30;99.90
20246;DHT22;10281;54.406;18.556;2024-02-21T08:41:31;8.40;99.90
20246;DHT22;10281;54.406;18.556;2024-02-21T08:43:58;8.40;99.90
20246;DHT22;10281;54.406;18.556;2024-02-21T08:46:25;8.40;99.90
20246;DHT22;10281;54.406;18.556;2024-02-21T08:48:53;8.30;99.90
20246;DHT22;10281;54.406;18.556;2024-02-21T08:51:20;8.30;99.90
20246;DHT22;10281;54.406;18.556;2024-02-21T08:53:48;8.30;99.90
20246;DHT22;10281;54.406;18.556;2024-02-21T08:56:16;8.40;99.90
20246;DHT22;10281;54.406;18.556;2024-02-21T08:58:43;8.40;99.90
20246;DHT22;10281;54.406;18.556;2024-02-21T09:01:10;8.40;99.90
20246;DHT22;10281;54.406;18.556;2024-02-21T09:03:38;8.40;99.90
20246;DHT22;10281;54.406;18.556;2024-02-21T09:06:06;8.40;99.90
20246;DHT22;10281;54.406;18.556;2024-02-21T09:08:33;8.40;99.90
20246;DHT22;10281;54.406;18.556;2024-02-21T09:11:00;8.40;99.90
20246;DHT22;10281;54.406;18.556;2024-02-21T09:13:27;8.40;99.90
20246;DHT22;10281;54.406;18.556;2024-02-21T09:15:54;8.40;99.90
20246;DHT22;10281;54.406;18.556;2024-02-21T09:18:21;8.40;99.90
20246;DHT22;10281;54.406;18.556;2024-02-21T09:20:48;8.50;99.90
20246;DHT22;10281;54.406;18.556;2024-02-21T09:23:14;8.40;99.90
20246;DHT22;10281;54.406;18.556;2024-02-21T09:25:41;8.40;99.90
20246;DHT22;10281;54.406;18.556;2024-02-21T09:28:08;8.30;99.90
20246;DHT22;10281;54.406;18.556;2024-02-21T09:30:35;8.40;99.90
20246;DHT22;10281;54.406;18.556;2024-02-21T09:33:04;8.30;99.90
20246;DHT22;10281;54.406;18.556;2024-02-21T09:35:31;8.30;99.90
20246;DHT22;10281;54.406;18.556;2024-02-21T09:37:59;8.40;99.90
20246;DHT22;10281;54.406;18.556;2024-02-21T09:40:26;8.40;99.90
20246;DHT22;10281;54.406;18.556;2024-02-21T09:43:00;8.50;99.90
20246;DHT22;10281;54.406;18.556;2024-02-21T09:45:24;8.50;99.90
20246;DHT22;10281;54.406;18.556;2024-02-21T09:48:27;8.50;99.90
20246;DHT22;10281;54.406;18.556;2024-02-21T09:50:39;8.50;99.90
20246;DHT22;10281;54.406;18.556;2024-02-21T09:53:07;8.60;99.90
20246;DHT22;10281;54.406;18.556;2024-02-21T09:55:34;8.60;99.90
20246;DHT22;10281;54.406;18.556;2024-02-21T09:58:02;8.60;99.90
20246;DHT22;10281;54.406;18.556;2024-02-21T10:00:29;8.60;99.90
20246;DHT22;10281;54.406;18.556;2024-02-21T10:02:56;8.70;99.90
20246;DHT22;10281;54.406;18.556;2024-02-21T10:05:22;8.70;99.90
20246;DHT22;10281;54.406;18.556;2024-02-21T10:07:51;8.80;99.90
20246;DHT22;10281;54.406;18.556;2024-02-21T10:10:18;8.90;99.90
20246;DHT22;10281;54.406;18.556;2024-02-21T10:12:50;8.90;99.90
20246;DHT22;10281;54.406;18.556;2024-02-21T10:15:20;9.00;99.90
20246;DHT22;10281;54.406;18.556;2024-02-21T10:17:49;9.10;99.90
20246;DHT22;10281;54.406;18.556;2024-02-21T10:20:15;9.10;99.90
20246;DHT22;10281;54.406;18.556;2024-02-21T10:22:42;9.30;99.90
20246;DHT22;10281;54.406;18.556;2024-02-21T10:25:12;9.40;99.90
20246;DHT22;10281;54.406;18.556;2024-02-21T10:27:40;9.40;99.90
20246;DHT22;10281;54.406;18.556;2024-02-21T10:30:14;9.30;99.90
20246;DHT22;10281;54.406;18.556;2024-02-21T10:32:49;9.40;99.90
20246;DHT22;10281;54.406;18.556;2024-02-21T10:37:51;9.60;99.90
20246;DHT22;10281;54.406;18.556;2024-02-21T10:40:19;9.60;99.90
20246;DHT22;10281;54.406;18.556;2024-02-21T10:42:47;9.50;99.90
20246;DHT22;10281;54.406;18.556;2024-02-21T10:45:14;9.60;99.90
20246;DHT22;10281;54.406;18.556;2024-02-21T10:47:43;9.70;99.90
20246;DHT22;10281;54.406;18.556;2024-02-21T10:50:15;9.70;99.90
20246;DHT22;10281;54.406;18.556;2024-02-21T10:55:35;9.80;99.90
20246;DHT22;10281;54.406;18.556;2024-02-21T10:58:01;9.60;99.90
20246;DHT22;10281;54.406;18.556;2024-02-21T11:00:29;9.60;99.90
20246;DHT22;10281;54.406;18.556;2024-02-21T11:02:58;9.50;99.90
20246;DHT22;10281;54.406;18.556;2024-02-21T11:05:25;9.50;99.90
20246;DHT22;10281;54.406;18.556;2024-02-21T11:07:54;9.50;99.90
20246;DHT22;10281;54.406;18.556;2024-02-21T11:10:23;9.40;99.90
20246;DHT22;10281;54.406;18.556;2024-02-21T11:13:04;9.50;99.90
20246;DHT22;10281;54.406;18.556;2024-02-21T11:15:26;9.50;99.90
20246;DHT22;10281;54.406;18.556;2024-02-21T11:17:55;9.50;99.90
20246;DHT22;10281;54.406;18.556;2024-02-21T11:22:57;9.40;99.90
20246;DHT22;10281;54.406;18.556;2024-02-21T11:25:24;9.50;99.90
20246;DHT22;10281;54.406;18.556;2024-02-21T11:28:08;9.40;99.90
20246;DHT22;10281;54.406;18.556;2024-02-21T11:30:36;9.40;99.90
20246;DHT22;10281;54.406;18.556;2024-02-21T11:33:06;9.40;99.90
20246;DHT22;10281;54.406;18.556;2024-02-21T11:35:34;9.30;99.90
20246;DHT22;10281;54.406;18.556;2024-02-21T11:38:09;9.20;99.90
20246;DHT22;10281;54.406;18.556;2024-02-21T11:40:38;9.30;99.90
20246;DHT22;10281;54.406;18.556;2024-02-21T11:43:06;9.30;99.90
20246;DHT22;10281;54.406;18.556;2024-02-21T11:45:33;9.20;99.90
20246;DHT22;10281;54.406;18.556;2024-02-21T11:48:00;9.30;99.90
20246;DHT22;10281;54.406;18.556;2024-02-21T11:50:29;9.20;99.90
20246;DHT22;10281;54.406;18.556;2024-02-21T11:52:57;9.30;99.90
20246;DHT22;10281;54.406;18.556;2024-02-21T11:55:24;9.30;99.90
20246;DHT22;10281;54.406;18.556;2024-02-21T11:57:51;9.40;99.90
20246;DHT22;10281;54.406;18.556;2024-02-21T12:00:19;9.30;99.90
20246;DHT22;10281;54.406;18.556;2024-02-21T12:02:47;9.30;99.90
20246;DHT22;10281;54.406;18.556;2024-02-21T12:05:14;9.30;99.90
20246;DHT22;10281;54.406;18.556;2024-02-21T12:07:41;9.30;99.90
20246;DHT22;10281;54.406;18.556;2024-02-21T12:10:10;9.30;99.90
20246;DHT22;10281;54.406;18.556;2024-02-21T12:12:39;9.30;99.90
20246;DHT22;10281;54.406;18.556;2024-02-21T12:15:07;9.40;99.90
20246;DHT22;10281;54.406;18.556;2024-02-21T12:17:34;9.40;99.90
20246;DHT22;10281;54.406;18.556;2024-02-21T12:20:03;9.50;99.90
20246;DHT22;10281;54.406;18.556;2024-02-21T12:22:31;9.60;99.90
20246;DHT22;10281;54.406;18.556;2024-02-21T12:24:59;9.60;99.90
20246;DHT22;10281;54.406;18.556;2024-02-21T12:27:25;9.50;99.90
20246;DHT22;10281;54.406;18.556;2024-02-21T12:29:52;9.60;99.90
20246;DHT22;10281;54.406;18.556;2024-02-21T12:32:19;9.60;99.90
20246;DHT22;10281;54.406;18.556;2024-02-21T12:34:45;9.60;99.90
20246;DHT22;10281;54.406;18.556;2024-02-21T12:37:12;9.60;99.90
20246;DHT22;10281;54.406;18.556;2024-02-21T12:39:39;9.60;99.90
20246;DHT22;10281;54.406;18.556;2024-02-21T12:42:05;9.60;99.90
20246;DHT22;10281;54.406;18.556;2024-02-21T12:44:32;9.70;99.90
20246;DHT22;10281;54.406;18.556;2024-02-21T12:46:59;9.70;99.90
20246;DHT22;10281;54.406;18.556;2024-02-21T12:49:26;9.80;99.90
20246;DHT22;10281;54.406;18.556;2024-02-21T12:51:55;9.80;99.90
20246;DHT22;10281;54.406;18.556;2024-02-21T12:54:22;9.80;99.90
20246;DHT22;10281;54.406;18.556;2024-02-21T12:56:49;9.80;99.90
20246;DHT22;10281;54.406;18.556;2024-02-21T12:59:16;9.80;99.90
20246;DHT22;10281;54.406;18.556;2024-02-21T13:01:42;9.80;99.90
20246;DHT22;10281;54.406;18.556;2024-02-21T13:04:09;9.80;99.90
20246;DHT22;10281;54.406;18.556;2024-02-21T13:06:37;9.70;99.90
20246;DHT22;10281;54.406;18.556;2024-02-21T13:09:04;9.70;99.90
20246;DHT22;10281;54.406;18.556;2024-02-21T13:11:33;9.70;99.90
20246;DHT22;10281;54.406;18.556;2024-02-21T13:14:00;9.70;99.90
20246;DHT22;10281;54.406;18.556;2024-02-21T13:16:27;9.70;99.90
20246;DHT22;10281;54.406;18.556;2024-02-21T13:18:53;9.70;99.90
20246;DHT22;10281;54.406;18.556;2024-02-21T13:21:20;9.70;99.90
20246;DHT22;10281;54.406;18.556;2024-02-21T13:23:47;9.70;99.90
20246;DHT22;10281;54.406;18.556;2024-02-21T13:26:13;9.80;99.90
20246;DHT22;10281;54.406;18.556;2024-02-21T13:28:41;9.80;99.90
20246;DHT22;10281;54.406;18.556;2024-02-21T13:31:08;9.90;99.90
20246;DHT22;10281;54.406;18.556;2024-02-21T13:33:34;9.90;99.90
20246;DHT22;10281;54.406;18.556;2024-02-21T13:36:02;10.00;99.90
20246;DHT22;10281;54.406;18.556;2024-02-21T13:38:29;10.00;99.90
20246;DHT22;10281;54.406;18.556;2024-02-21T13:40:56;9.90;99.90
20246;DHT22;10281;54.406;18.556;2024-02-21T13:43:23;9.90;99.90
20246;DHT22;10281;54.406;18.556;2024-02-21T13:45:58;9.90;99.90
20246;DHT22;10281;54.406;18.556;2024-02-21T13:48:25;10.00;99.90
20246;DHT22;10281;54.406;18.556;2024-02-21T13:50:53;10.00;99.90
20246;DHT22;10281;54.406;18.556;2024-02-21T13:53:19;10.00;99.90
20246;DHT22;10281;54.406;18.556;2024-02-21T13:55:47;10.00;99.90
20246;DHT22;10281;54.406;18.556;2024-02-21T13:58:14;10.00;99.90
20246;DHT22;10281;54.406;18.556;2024-02-21T14:00:41;10.00;99.90
20246;DHT22;10281;54.406;18.556;2024-02-21T14:03:08;10.00;99.90
20246;DHT22;10281;54.406;18.556;2024-02-21T14:05:35;9.90;99.90
20246;DHT22;10281;54.406;18.556;2024-02-21T14:08:02;9.90;99.90
20246;DHT22;10281;54.406;18.556;2024-02-21T14:10:29;9.80;99.90
20246;DHT22;10281;54.406;18.556;2024-02-21T14:12:55;9.70;99.90
20246;DHT22;10281;54.406;18.556;2024-02-21T14:15:23;9.70;99.90
20246;DHT22;10281;54.406;18.556;2024-02-21T14:17:51;9.60;99.90
20246;DHT22;10281;54.406;18.556;2024-02-21T14:20:17;9.50;99.90
20246;DHT22;10281;54.406;18.556;2024-02-21T14:22:44;9.40;99.90
20246;DHT22;10281;54.406;18.556;2024-02-21T14:25:10;9.30;99.90
20246;DHT22;10281;54.406;18.556;2024-02-21T14:27:38;9.20;99.90
20246;DHT22;10281;54.406;18.556;2024-02-21T14:30:05;9.20;99.90
20246;DHT22;10281;54.406;18.556;2024-02-21T14:32:32;9.20;99.90
20246;DHT22;10281;54.406;18.556;2024-02-21T14:34:59;9.10;99.90
20246;DHT22;10281;54.406;18.556;2024-02-21T14:37:25;9.20;99.90
20246;DHT22;10281;54.406;18.556;2024-02-21T14:39:52;9.20;99.90
20246;DHT22;10281;54.406;18.556;2024-02-21T14:42:19;9.10;99.90
20246;DHT22;10281;54.406;18.556;2024-02-21T14:44:45;9.10;99.90
20246;DHT22;10281;54.406;18.556;2024-02-21T14:47:12;9.10;99.90
20246;DHT22;10281;54.406;18.556;2024-02-21T14:49:38;9.20;99.90
20246;DHT22;10281;54.406;18.556;2024-02-21T14:52:05;9.20;99.90
20246;DHT22;10281;54.406;18.556;2024-02-21T14:54:32;9.20;99.90
20246;DHT22;10281;54.406;18.556;2024-02-21T14:57:00;9.20;99.90
20246;DHT22;10281;54.406;18.556;2024-02-21T14:59:26;9.10;99.90
20246;DHT22;10281;54.406;18.556;2024-02-21T15:01:53;9.20;99.90
20246;DHT22;10281;54.406;18.556;2024-02-21T15:04:20;9.10;99.90
20246;DHT22;10281;54.406;18.556;2024-02-21T15:06:46;9.10;99.90
20246;DHT22;10281;54.406;18.556;2024-02-21T15:09:14;9.10;99.90
20246;DHT22;10281;54.406;18.556;2024-02-21T15:11:41;9.10;99.90
20246;DHT22;10281;54.406;18.556;2024-02-21T15:14:08;9.00;99.90
20246;DHT22;10281;54.406;18.556;2024-02-21T15:16:35;9.00;99.90
20246;DHT22;10281;54.406;18.556;2024-02-21T15:19:02;8.90;99.90
20246;DHT22;10281;54.406;18.556;2024-02-21T15:21:29;8.90;99.90
20246;DHT22;10281;54.406;18.556;2024-02-21T15:23:56;8.90;99.90
20246;DHT22;10281;54.406;18.556;2024-02-21T15:26:24;8.80;99.90
20246;DHT22;10281;54.406;18.556;2024-02-21T15:28:50;8.70;99.90
20246;DHT22;10281;54.406;18.556;2024-02-21T15:31:20;8.70;99.90
20246;DHT22;10281;54.406;18.556;2024-02-21T15:33:51;8.70;99.90
20246;DHT22;10281;54.406;18.556;2024-02-21T15:36:18;8.60;99.90
20246;DHT22;10281;54.406;18.556;2024-02-21T15:38:46;8.60;99.90